Latest Weather Observations for Scone Airport

IDN60801

Issued at 6:32 pm EDT Sunday 14 February 2016 (issued every 30 minutes, with the page automatically refreshed every 10 minutes)

About weather observations | Map of weather stations | Latest weather observations for NSW | Other Formats
Station Details ID: 061363 Name: SCONE AIRPORT AWS Lat: -32.03 Lon: 150.83 Height: 221.4 m
Data from the previous 72 hours. | See also: Recent months at Scone Airport
Date/Time
EDT
Temp
°C
App
Temp
°C
Dew
Point
Rel
Hum
%
Delta-T
°C
Wind Press
QNH
hPa
Press
MSL
hPa
Rain
since 9 am
mm
Dir
 
Spd
km/h
Gust
km/h
Spd
kts
Gust
kts
14/06:30pm 34.2 32.4 8.0 20 14.8 NNE 7 13 4 7 1006.1 1005.0 0.0
14/06:00pm 36.7 34.3 6.8 16 16.8 ESE 9 19 5 10 1006.0 1004.9 0.0
14/05:30pm 37.4 33.9 5.4 14 17.6 ESE 13 22 7 12 1006.0 1004.9 0.0
14/05:00pm 37.8 34.8 7.7 16 17.2 SSE 13 20 7 11 1006.0 1004.9 0.0
14/04:30pm 38.5 35.4 7.3 15 17.8 SSE 13 19 7 10 1006.1 1005.0 0.0
14/04:00pm 38.3 36.0 5.0 13 18.3 SW 6 11 3 6 1006.2 1005.1 0.0
14/03:30pm 38.3 34.9 6.1 14 18.0 SSW 13 20 7 11 1006.5 1005.4 0.0
14/03:00pm 38.5 36.3 6.3 14 18.1 W 7 19 4 10 1006.8 1005.7 0.0
14/02:30pm 37.8 35.6 7.7 16 17.2 WNW 9 24 5 13 1007.3 1006.1 0.0
14/02:00pm 37.5 35.8 10.0 19 16.2 S 9 19 5 10 1007.6 1006.5 0.0
14/01:30pm 37.0 35.2 9.6 19 16.0 WSW 9 19 5 10 1007.9 1006.8 0.0
14/01:00pm 36.2 33.3 9.7 20 15.5 SSW 15 24 8 13 1008.5 1007.4 0.0
14/12:30pm 35.7 33.1 10.7 22 14.8 W 15 20 8 11 1009.0 1007.9 0.0
14/12:00pm 35.0 34.5 12.6 26 13.6 W 7 17 4 9 1009.4 1008.3 0.0
14/11:30am 33.7 33.2 12.7 28 12.7 NE 7 17 4 9 1009.7 1008.6 0.0
14/11:00am 31.9 31.7 13.6 32 11.1 NE 7 11 4 6 1010.2 1009.1 0.0
14/10:30am 29.9 29.4 11.9 33 10.6 NE 6 11 3 6 1010.6 1009.5 0.0
14/10:00am 27.5 26.8 11.9 38 9.1 NE 7 11 4 6 1010.9 1009.8 0.0
14/09:30am 25.9 25.9 12.4 43 7.9 ESE 4 9 2 5 1011.1 1010.0 0.0
14/09:00am 23.4 24.0 13.0 52 6.1 SW 2 7 1 4 1011.1 1010.0 0.0
14/08:30am 20.7 21.5 12.7 60 4.6 CALM 0 0 0 0 1010.9 1009.8 0.0
14/08:00am 18.9 20.0 13.5 71 3.1 CALM 0 0 0 0 1010.8 1009.7 0.0
14/07:30am 16.2 17.4 13.9 86 1.3 CALM 0 0 0 0 1010.6 1009.5 0.0
14/07:00am 13.0 13.2 11.9 93 0.6 WNW 2 6 1 3 1010.2 1009.1 0.0
14/06:30am 12.7 11.8 11.3 91 0.7 W 7 9 4 5 1010.0 1008.9 0.0
14/06:00am 13.5 14.0 11.6 88 1.0 CALM 0 0 0 0 1009.6 1008.5 0.0
14/05:30am 13.8 14.4 12.0 89 1.0 CALM 0 6 0 3 1009.3 1008.2 0.0
14/05:00am 13.6 13.8 11.8 89 1.0 WNW 2 6 1 3 1009.2 1008.1 0.0
14/04:30am 14.0 14.6 12.0 88 1.1 CALM 0 0 0 0 1009.2 1008.1 0.0
14/04:00am 14.1 14.8 12.1 88 1.1 CALM 0 0 0 0 1009.3 1008.2 0.0
14/03:30am 14.1 14.7 11.8 86 1.2 CALM 0 6 0 3 1009.4 1008.3 0.0
14/03:00am 14.8 15.6 12.5 86 1.3 CALM 0 6 0 3 1009.5 1008.4 0.0
14/02:30am 15.3 16.1 12.6 84 1.5 CALM 0 0 0 0 1009.6 1008.5 0.0
14/02:00am 15.5 16.3 12.4 82 1.7 CALM 0 0 0 0 1009.9 1008.8 0.0
14/01:30am 15.8 16.2 12.5 81 1.8 W 2 6 1 3 1010.2 1009.1 0.0
14/01:00am 16.5 17.3 12.7 78 2.1 CALM 0 0 0 0 1010.4 1009.3 0.0
14/12:30am 17.0 17.9 12.9 77 2.3 CALM 0 0 0 0 1010.6 1009.5 0.0
14/12:00am 17.1 17.2 12.6 75 2.5 W 4 7 2 4 1010.7 1009.6 0.0
 
Date/Time
EDT
Temp
°C
App
Temp
°C
Dew
Point
Rel
Hum
%
Delta-T
°C
Wind Press
QNH
hPa
Press
MSL
hPa
Rain
since 9 am
mm
Dir
 
Spd
km/h
Gust
km/h
Spd
kts
Gust
kts
13/11:30pm 17.7 18.1 12.6 72 2.9 NNW 2 6 1 3 1010.8 1009.7 0.0
13/11:00pm 18.4 19.4 13.1 71 3.0 CALM 0 0 0 0 1011.0 1009.9 0.0
13/10:30pm 19.3 19.9 13.0 67 3.6 NW 2 9 1 5 1011.2 1010.1 0.0
13/10:00pm 20.0 20.8 12.7 63 4.2 CALM 0 0 0 0 1011.2 1010.1 0.0
13/09:30pm 21.7 22.6 12.8 57 5.1 CALM 0 0 0 0 1011.1 1010.0 0.0
13/09:00pm 22.8 22.9 12.7 53 5.8 SSE 4 6 2 3 1010.8 1009.7 0.0
13/08:30pm 24.1 22.8 12.4 48 6.8 S 11 13 6 7 1010.5 1009.4 0.0
13/08:00pm 25.2 23.2 11.4 42 7.9 SSE 13 15 7 8 1010.1 1009.0 0.0
13/07:30pm 27.4 25.0 10.2 34 9.7 SSE 13 15 7 8 1010.0 1008.9 0.0
13/07:00pm 29.6 27.8 12.1 34 10.3 SE 13 19 7 10 1009.7 1008.6 0.0
13/06:30pm 31.0 28.3 10.4 28 11.9 SE 15 19 8 10 1009.7 1008.6 0.0
13/06:00pm 31.7 27.8 9.3 25 12.8 SSE 20 24 11 13 1009.7 1008.6 0.0
13/05:30pm 32.2 28.9 10.8 27 12.5 SSE 19 28 10 15 1009.9 1008.8 0.0
13/05:00pm 32.8 29.7 10.2 25 13.1 SSE 17 24 9 13 1010.0 1008.9 0.0
13/04:30pm 32.6 28.7 9.4 24 13.3 SSE 20 30 11 16 1010.3 1009.2 0.0
13/04:00pm 33.1 29.5 9.8 24 13.5 SSE 19 28 10 15 1010.6 1009.5 0.0
13/03:30pm 32.8 29.2 8.3 22 13.8 SSE 17 26 9 14 1010.8 1009.7 0.0
13/03:00pm 32.8 29.9 9.6 24 13.3 S 15 24 8 13 1011.1 1010.0 0.0
13/02:30pm 32.3 29.8 9.8 25 12.9 S 13 26 7 14 1011.5 1010.5 0.0
13/02:00pm 32.0 29.3 11.7 28 12.0 SE 17 22 9 12 1012.2 1011.1 0.0
13/01:30pm 31.6 29.2 11.4 29 11.9 S 15 22 8 12 1012.6 1011.5 0.0
13/01:00pm 30.9 27.9 9.2 26 12.3 S 15 24 8 13 1013.0 1011.9 0.0
13/12:30pm 29.2 28.5 14.2 40 9.1 S 11 20 6 11 1013.5 1012.4 0.0
13/12:00pm 28.4 28.1 14.3 42 8.6 SSE 9 17 5 9 1014.0 1012.9 0.0
13/11:30am 26.5 26.2 15.5 50 6.8 SE 11 15 6 8 1014.3 1013.2 0.0
13/11:00am 25.2 25.8 15.8 56 5.8 W 7 11 4 6 1014.6 1013.5 0.0
13/10:30am 24.3 25.5 16.8 63 4.7 NW 6 11 3 6 1015.0 1013.9 0.0
13/10:00am 22.9 24.2 17.1 70 3.6 NNW 6 13 3 7 1015.3 1014.2 0.0
13/09:30am 20.5 21.7 16.9 80 2.2 WNW 6 9 3 5 1015.3 1014.2 0.0
13/09:00am 19.9 21.4 17.5 86 1.5 WSW 6 11 3 6 1015.2 1014.1 0.0
13/08:30am 19.0 21.8 18.0 94 0.6 CALM 0 0 0 0 1015.2 1014.1 0.0
13/08:00am 18.4 20.6 17.4 94 0.6 SE 2 7 1 4 1015.2 1014.1 0.0
13/07:30am 18.3 20.7 17.1 93 0.7 CALM 0 0 0 0 1014.9 1013.8 0.0
13/07:00am 17.6 19.8 16.5 93 0.7 CALM 0 0 0 0 1014.8 1013.7 0.0
13/06:30am 17.5 19.7 16.5 94 0.6 CALM 0 0 0 0 1014.4 1013.3 0.0
13/06:00am 17.2 19.4 16.4 95 0.5 CALM 0 0 0 0 1014.2 1013.1 0.0
13/05:30am 16.9 19.0 16.3 96 0.4 CALM 0 0 0 0 1014.0 1012.9 0.0
13/05:00am 16.7 18.9 16.4 98 0.2 CALM 0 0 0 0 1013.9 1012.8 0.0
13/04:30am 16.1 17.9 15.6 97 0.3 CALM 0 0 0 0 1013.9 1012.8 0.0
13/04:00am 15.3 16.6 14.0 92 0.7 CALM 0 0 0 0 1014.0 1012.9 0.0
13/03:30am 15.5 16.8 14.0 91 0.9 CALM 0 0 0 0 1014.0 1012.9 0.0
13/03:00am 16.6 18.4 15.5 93 0.6 CALM 0 0 0 0 1014.1 1013.0 0.0
13/02:30am 16.8 18.1 15.2 90 0.9 N 2 7 1 4 1014.3 1013.2 0.0
13/02:00am 17.6 19.4 15.6 88 1.2 CALM 0 0 0 0 1014.5 1013.4 0.0
13/01:30am 18.2 20.3 16.2 88 1.2 CALM 0 0 0 0 1014.5 1013.4 0.0
13/01:00am 18.5 19.4 16.1 86 1.4 ESE 6 7 3 4 1014.6 1013.5 0.0
13/12:30am 19.0 19.7 16.2 84 1.7 ESE 7 9 4 5 1014.5 1013.4 0.0
13/12:00am 20.3 19.3 16.7 80 2.2 S 17 19 9 10 1014.5 1013.4 0.0
 
Date/Time
EDT
Temp
°C
App
Temp
°C
Dew
Point
Rel
Hum
%
Delta-T
°C
Wind Press
QNH
hPa
Press
MSL
hPa
Rain
since 9 am
mm
Dir
 
Spd
km/h
Gust
km/h
Spd
kts
Gust
kts
12/11:30pm 20.4 19.8 16.6 79 2.3 S 15 19 8 10 1014.5 1013.4 0.0
12/11:00pm 20.6 20.4 16.6 78 2.4 S 13 17 7 9 1014.6 1013.5 0.0
12/10:30pm 21.6 20.8 17.2 76 2.7 S 17 20 9 11 1014.6 1013.5 0.0
12/10:00pm 22.1 21.0 17.2 74 3.0 S 19 20 10 11 1014.5 1013.4 0.0
12/09:30pm 22.8 21.9 17.7 73 3.2 S 19 22 10 12 1014.2 1013.1 0.0
12/09:00pm 23.4 22.8 16.7 66 4.1 S 15 19 8 10 1014.0 1012.9 0.0
12/08:30pm 24.5 23.5 14.6 54 5.9 SSE 13 17 7 9 1013.7 1012.6 0.0
12/08:00pm 25.3 23.0 14.1 50 6.7 SE 19 22 10 12 1013.6 1012.5 0.0
12/07:30pm 26.7 23.8 14.1 46 7.6 SSE 22 30 12 16 1013.3 1012.2 0.0
12/07:00pm 28.0 24.8 13.1 39 8.9 SE 22 30 12 16 1012.9 1011.8 0.0
12/06:30pm 28.9 24.7 13.6 39 9.2 SE 28 35 15 19 1012.6 1011.5 0.0
12/06:00pm 29.6 26.4 14.2 39 9.4 SSE 24 33 13 18 1012.6 1011.5 0.0
12/05:30pm 30.2 26.4 13.5 36 10.1 SSE 26 33 14 18 1012.5 1011.4 0.0
12/05:00pm 30.5 26.9 12.9 34 10.5 SE 24 33 13 18 1012.5 1011.4 0.0
12/04:30pm 31.3 29.0 14.0 35 10.6 SE 19 32 10 17 1012.6 1011.5 0.0
12/04:00pm 31.2 28.6 13.9 35 10.5 SE 20 28 11 15 1012.7 1011.6 0.0
12/03:30pm 31.5 29.2 14.6 36 10.4 SSE 20 28 11 15 1013.0 1011.9 0.0
12/03:00pm 31.5 30.1 15.5 38 10.0 SSE 17 30 9 16 1013.2 1012.1 0.0
12/02:30pm 31.6 30.9 16.4 40 9.6 SSE 15 26 8 14 1013.7 1012.6 0.0
12/02:00pm 30.2 28.8 15.5 41 9.1 S 17 22 9 12 1014.2 1013.1 0.0
12/01:30pm 29.9 30.6 17.0 45 8.2 SSE 9 15 5 8 1014.5 1013.4 0.0
12/01:00pm 28.9 28.0 15.8 45 8.1 SSE 15 20 8 11 1015.0 1013.9 0.0
12/12:30pm 28.5 27.8 16.4 48 7.6 SSE 15 24 8 13 1015.5 1014.5 0.0
12/12:00pm 27.2 27.3 16.5 52 6.7 SE 11 20 6 11 1015.9 1014.9 0.0
12/11:30am 27.1 28.0 17.6 56 6.0 E 9 15 5 8 1016.2 1015.2 0.0
12/11:00am 25.3 25.6 17.0 60 5.2 SSW 11 17 6 9 1016.4 1015.4 0.0
12/10:30am 23.7 23.9 16.7 65 4.3 SSE 11 19 6 10 1016.7 1015.6 0.0
12/10:00am 22.9 23.1 17.6 72 3.3 SSW 13 20 7 11 1017.0 1015.9 0.0
12/09:30am 22.6 22.8 17.7 74 3.1 S 13 19 7 10 1017.0 1015.9 0.0
12/09:00am 22.0 23.0 18.6 81 2.2 SSE 11 17 6 9 1016.8 1015.7 0.0
12/08:30am 20.6 21.6 18.7 89 1.2 S 11 15 6 8 1016.5 1015.5 0.0
12/08:00am 19.9 21.6 18.4 91 0.9 SSE 7 9 4 5 1016.1 1015.1 0.0
12/07:30am 19.7 21.4 18.4 92 0.8 ESE 7 11 4 6 1015.7 1014.7 0.0
12/07:00am 19.5 21.1 18.2 92 0.8 SSE 7 11 4 6 1015.6 1014.6 0.0
12/06:30am 19.4 21.0 17.9 91 0.9 S 6 7 3 4 1015.2 1014.1 0.0
12/06:00am 19.5 20.6 18.0 91 0.9 S 9 13 5 7 1015.0 1013.9 0.0
12/05:30am 19.7 21.4 18.4 92 0.8 SE 7 9 4 5 1014.6 1013.5 0.0
12/05:00am 19.5 21.3 18.2 92 0.8 E 6 11 3 6 1014.3 1013.2 0.0
12/04:30am 18.7 20.6 17.7 94 0.6 NW 4 6 2 3 1014.5 1013.4 0.0
12/04:00am 17.8 18.9 17.2 96 0.4 NNW 7 9 4 5 1014.5 1013.4 0.0
12/03:30am 17.5 19.0 15.8 90 1.0 NW 2 7 1 4 1014.3 1013.2 0.0
12/03:00am 18.7 21.0 16.7 88 1.2 CALM 0 0 0 0 1014.4 1013.3 0.0
12/02:30am 19.6 21.1 17.7 89 1.2 SE 6 11 3 6 1014.8 1013.7 0.0
12/02:00am 19.6 20.0 18.1 91 0.9 S 13 17 7 9 1014.9 1013.8 0.0
12/01:30am 18.8 20.0 16.9 89 1.2 SSW 6 9 3 5 1014.5 1013.4 0.0
12/01:00am 18.9 21.2 16.7 87 1.3 CALM 0 7 0 4 1014.6 1013.5 0.0
12/12:30am 19.3 20.4 16.5 84 1.7 SSE 6 13 3 7 1014.6 1013.5 0.0
12/12:00am 20.0 21.0 16.8 82 2.0 SSW 7 11 4 6 1014.8 1013.7 0.0
 
Date/Time
EDT
Temp
°C
App
Temp
°C
Dew
Point
Rel
Hum
%
Delta-T
°C
Wind Press
QNH
hPa
Press
MSL
hPa
Rain
since 9 am
mm
Dir
 
Spd
km/h
Gust
km/h
Spd
kts
Gust
kts
11/11:30pm 20.4 21.5 16.6 79 2.3 WSW 6 7 3 4 1014.6 1013.5 0.0
11/11:00pm 21.4 22.0 16.8 75 2.8 SSE 9 13 5 7 1014.8 1013.7 0.0
11/10:30pm 22.1 21.9 16.8 72 3.3 S 13 17 7 9 1015.2 1014.1 0.0
11/10:00pm 22.9 20.6 16.7 68 3.8 SSE 24 35 13 19 1015.1 1014.0 0.0
11/09:30pm 23.6 20.7 17.1 67 4.0 SSE 28 37 15 20 1015.0 1013.9 0.0
11/09:00pm 24.1 20.6 17.4 66 4.2 SSE 32 39 17 21 1014.3 1013.2 0.0
11/08:30pm 25.0 22.4 17.7 64 4.6 SSE 28 39 15 21 1013.7 1012.6 0.0
11/08:00pm 25.8 23.0 17.4 59 5.3 S 28 39 15 21 1013.1 1012.0 0.0
11/07:30pm 26.8 24.7 16.1 52 6.6 S 22 28 12 15 1012.4 1011.3 0.0
11/07:00pm 27.9 25.7 14.9 45 8.0 S 20 30 11 16 1011.6 1010.6 0.0

Other Formats:

Comma delimited format used in spreadsheet applications
http://www.bom.gov.au/fwo/IDN60801/IDN60801.95758.axf

JavaScript Object Notation format (JSON) in row-major order
http://www.bom.gov.au/fwo/IDN60801/IDN60801.95758.json